Time;durP1;ratioP1;P1;durP2;ratioP2;P2;SDS_P1;SDS_P2;PMS_P1;PMS_P2;Temp;Humidity;BMP_temperature;BMP_pressure;BME280_temperature;BME280_humidity;BME280_pressure;Samples;Min_cycle;Max_cycle;Signal;HPM_P1;HPM_P2
2022/08/09 00:00:01;;;;;;;;;;;;;;;25.13;43.63;99631.78;3135298;28;19920;-70
2022/08/09 00:01:33;;;;;;;;;;;;;;;25.12;43.44;99630.94;3136025;28;20368;-70
2022/08/09 00:03:04;;;;;;;;;;;;;;;25.09;43.19;99631.28;3135301;28;19950;-69
2022/08/09 00:04:38;;;;;;;;;;;;;;;25.00;43.45;99637.59;3133927;28;20385;-69
2022/08/09 00:06:09;;;;;;;;;;;;;;;24.91;43.34;99635.94;3135310;28;19948;-70
2022/08/09 00:07:42;;;;;;;;;;;;;;;24.86;43.42;99635.59;3135191;28;19932;-69
2022/08/09 00:09:14;;;;;;;;;;;;;;;24.83;43.18;99631.44;3134965;28;19920;-69
2022/08/09 00:10:45;;;;;;;;;;;;;;;24.79;43.31;99629.25;3135439;28;19924;-68
2022/08/09 00:12:17;;;;;;;;;;;;;;;24.74;43.42;99627.09;3135392;28;19924;-70
2022/08/09 00:13:48;;;;;;;;;;;;;;;24.67;43.30;99626.09;3135011;28;19921;-70
2022/08/09 00:15:20;;;;;;;;;;;;;;;24.62;43.09;99623.91;3135170;28;19924;-69
2022/08/09 00:16:51;;;;;;;;;;;;;;;24.59;43.22;99629.56;3137958;28;19986;-69
2022/08/09 00:18:22;;;;;;;;;;;;;;;24.58;43.54;99627.91;3129984;28;20275;-69
2022/08/09 00:19:55;;;;;;;;;;;;;;;24.56;43.49;99624.56;3133268;28;19920;-69
2022/08/09 00:21:26;;;;;;;;;;;;;;;24.57;43.36;99620.91;3135034;28;19924;-69
2022/08/09 00:22:58;;;;;;;;;;;;;;;24.55;43.38;99620.25;3135872;28;20017;-69
2022/08/09 00:24:30;;;;;;;;;;;;;;;24.54;43.68;99620.41;3137501;28;20267;-70
2022/08/09 00:26:01;;;;;;;;;;;;;;;24.51;43.61;99621.56;3137065;28;19928;-69
2022/08/09 00:27:33;;;;;;;;;;;;;;;24.47;43.63;99610.41;3137665;28;19967;-70
2022/08/09 00:29:04;;;;;;;;;;;;;;;24.45;43.76;99617.72;3137694;28;20004;-70
2022/08/09 00:30:35;;;;;;;;;;;;;;;24.45;43.57;99619.56;3138668;28;19921;-69
2022/08/09 00:32:07;;;;;;;;;;;;;;;24.43;43.69;99624.19;3139687;28;19924;-70
2022/08/09 00:33:40;;;;;;;;;;;;;;;24.40;43.38;99619.16;3137421;28;19937;-70
2022/08/09 00:35:13;;;;;;;;;;;;;;;24.37;43.62;99620.31;3137573;28;19971;-69
2022/08/09 00:36:45;;;;;;;;;;;;;;;24.37;43.20;99624.81;3137351;28;19960;-70
2022/08/09 00:38:16;;;;;;;;;;;;;;;24.35;43.32;99622.34;3137438;28;20404;-69
2022/08/09 00:39:47;;;;;;;;;;;;;;;24.33;43.23;99620.81;3137404;28;19986;-69
2022/08/09 00:41:21;;;;;;;;;;;;;;;24.35;43.39;99621.50;3137522;28;19936;-69
2022/08/09 00:42:52;;;;;;;;;;;;;;;24.34;43.17;99619.81;3137255;28;20407;-68
2022/08/09 00:44:24;;;;;;;;;;;;;;;24.35;43.38;99629.50;3137409;28;19937;-69
2022/08/09 00:45:55;;;;;;;;;;;;;;;24.34;43.12;99625.97;3138675;28;19921;-69
2022/08/09 00:47:27;;;;;;;;;;;;;;;24.36;42.88;99624.00;3137100;28;19924;-69
2022/08/09 00:48:58;;;;;;;;;;;;;;;24.38;42.73;99622.00;3137228;28;19921;-69
2022/08/09 00:50:31;;;;;;;;;;;;;;;24.37;42.91;99616.84;3137370;28;19935;-69
2022/08/09 00:52:04;;;;;;;;;;;;;;;24.38;42.77;99624.66;3137338;28;19920;-69
2022/08/09 00:53:36;;;;;;;;;;;;;;;24.39;42.38;99628.16;3137119;28;19920;-70
2022/08/09 00:55:08;;;;;;;;;;;;;;;24.40;42.61;99627.16;3137134;28;19924;-69
2022/08/09 00:56:40;;;;;;;;;;;;;;;24.41;42.32;99626.19;3136933;28;19939;-69
2022/08/09 00:58:10;;;;;;;;;;;;;;;24.34;42.15;99619.81;3137312;28;19982;-69
2022/08/09 00:59:44;;;;;;;;;;;;;;;24.29;42.47;99623.00;3136855;28;19997;-69
2022/08/09 01:01:19;;;;;;;;;;;;;;;24.28;42.61;99624.81;3140563;28;19927;-69
2022/08/09 01:02:57;;;;;;;;;;;;;;;24.25;42.51;99622.47;3137263;28;19921;-68
2022/08/09 01:04:34;;;;;;;;;;;;;;;24.20;42.48;99621.31;3137364;28;19978;-69
2022/08/09 01:06:09;;;;;;;;;;;;;;;24.20;42.29;99622.13;3131008;28;20292;-69
2022/08/09 01:07:44;;;;;;;;;;;;;;;24.16;42.14;99626.09;3130680;28;19924;-69
2022/08/09 01:09:20;;;;;;;;;;;;;;;24.11;41.81;99620.44;3137208;28;19974;-70
2022/08/09 01:10:57;;;;;;;;;;;;;;;24.05;41.78;99621.06;3137122;28;19920;-69
2022/08/09 01:12:33;;;;;;;;;;;;;;;23.98;41.64;99620.03;3137027;28;19921;-70
2022/08/09 01:14:06;;;;;;;;;;;;;;;23.94;41.35;99618.69;3136725;28;19947;-70
2022/08/09 01:15:40;;;;;;;;;;;;;;;23.93;41.72;99627.66;3137066;28;20241;-70
2022/08/09 01:17:15;;;;;;;;;;;;;;;23.88;41.27;99622.00;3139440;28;19928;-70
2022/08/09 01:18:48;;;;;;;;;;;;;;;23.84;41.17;99622.31;3136967;28;20015;-70
2022/08/09 01:20:23;;;;;;;;;;;;;;;23.83;41.25;99617.97;3136926;28;20257;-70
2022/08/09 01:22:04;;;;;;;;;;;;;;;23.80;40.75;99620.13;3136662;28;19924;-69
2022/08/09 01:23:45;;;;;;;;;;;;;;;23.76;40.94;99618.78;3137136;28;19921;-69
2022/08/09 01:25:19;;;;;;;;;;;;;;;23.75;40.92;99622.41;3137044;28;19932;-70
2022/08/09 01:26:57;;;;;;;;;;;;;;;23.73;40.61;99625.25;3136741;28;20379;-69
2022/08/09 01:28:30;;;;;;;;;;;;;;;23.73;40.86;99621.75;3136771;28;19921;-70
2022/08/09 01:30:04;;;;;;;;;;;;;;;23.75;40.91;99620.63;3136642;28;20011;-70
2022/08/09 01:31:36;;;;;;;;;;;;;;;23.75;40.79;99625.94;3136435;28;19943;-70
2022/08/09 01:33:09;;;;;;;;;;;;;;;23.75;40.75;99617.97;3136637;28;19932;-70
2022/08/09 01:34:43;;;;;;;;;;;;;;;23.74;40.71;99626.91;3136250;28;19925;-70
2022/08/09 01:36:16;;;;;;;;;;;;;;;23.73;40.60;99611.13;3136901;28;19921;-69
2022/08/09 01:37:49;;;;;;;;;;;;;;;23.72;40.61;99622.72;3136696;28;20348;-70
2022/08/09 01:39:21;;;;;;;;;;;;;;;23.71;40.88;99619.25;3136670;28;19932;-70
2022/08/09 01:40:55;;;;;;;;;;;;;;;23.72;40.58;99623.59;3140814;28;19929;-70
2022/08/09 01:42:29;;;;;;;;;;;;;;;23.74;40.94;99623.41;3136588;28;19924;-70
2022/08/09 01:44:02;;;;;;;;;;;;;;;23.75;40.85;99620.63;3136726;28;19951;-70
2022/08/09 01:45:35;;;;;;;;;;;;;;;23.75;41.26;99631.25;3136533;28;19920;-70
2022/08/09 01:47:07;;;;;;;;;;;;;;;23.75;41.36;99625.06;3141125;28;19982;-69
2022/08/09 01:48:39;;;;;;;;;;;;;;;23.77;41.30;99618.59;3136749;28;19920;-70
2022/08/09 01:50:11;;;;;;;;;;;;;;;23.78;41.68;99619.44;3136516;28;20301;-69
2022/08/09 01:51:43;;;;;;;;;;;;;;;23.76;41.90;99626.75;3136713;28;19936;-69
2022/08/09 01:53:14;;;;;;;;;;;;;;;23.76;42.16;99621.44;3136500;28;19925;-70
2022/08/09 01:54:47;;;;;;;;;;;;;;;23.74;42.98;99621.59;3136621;28;19995;-70
2022/08/09 01:56:20;;;;;;;;;;;;;;;23.70;43.21;99617.59;3136135;28;19920;-71
2022/08/09 01:57:53;;;;;;;;;;;;;;;23.68;44.12;99614.22;3136315;28;20356;-69
2022/08/09 01:59:25;;;;;;;;;;;;;;;23.64;44.50;99612.03;3133050;28;19928;-70
2022/08/09 02:00:58;;;;;;;;;;;;;;;23.61;44.37;99613.19;3136594;28;19943;-69
2022/08/09 02:02:32;;;;;;;;;;;;;;;23.58;45.04;99617.00;3142793;28;19924;-69
2022/08/09 02:04:04;;;;;;;;;;;;;;;23.56;44.84;99618.13;3136259;28;19920;-70
2022/08/09 02:05:36;;;;;;;;;;;;;;;23.55;45.38;99619.13;3128503;28;19931;-70
2022/08/09 02:07:12;;;;;;;;;;;;;;;23.49;46.00;99607.31;3135468;28;19927;-69
2022/08/09 02:08:45;;;;;;;;;;;;;;;23.45;45.48;99608.59;3131883;28;19958;-69
2022/08/09 02:10:17;;;;;;;;;;;;;;;23.43;45.76;99599.97;3136529;28;19931;-70
2022/08/09 02:11:48;;;;;;;;;;;;;;;23.41;45.93;99607.25;3136433;28;19929;-69
2022/08/09 02:13:23;;;;;;;;;;;;;;;23.38;46.58;99607.56;3136400;28;19939;-70
2022/08/09 02:14:56;;;;;;;;;;;;;;;23.35;46.67;99615.84;3136399;28;19920;-69
2022/08/09 02:16:32;;;;;;;;;;;;;;;23.32;46.84;99614.34;3129752;28;19921;-69
2022/08/09 02:18:04;;;;;;;;;;;;;;;23.30;47.25;99610.97;3141490;28;21349;-71
2022/08/09 02:19:35;;;;;;;;;;;;;;;23.27;47.70;99605.97;3136527;28;19921;-70
2022/08/09 02:21:09;;;;;;;;;;;;;;;23.20;47.94;99606.78;3136269;28;20307;-69
2022/08/09 02:22:45;;;;;;;;;;;;;;;23.16;48.31;99608.91;3136244;28;19928;-70
2022/08/09 02:24:20;;;;;;;;;;;;;;;23.10;48.02;99610.38;3136166;28;19924;-69
2022/08/09 02:25:52;;;;;;;;;;;;;;;23.08;48.59;99611.50;3136288;28;19936;-70
2022/08/09 02:27:25;;;;;;;;;;;;;;;23.02;48.84;99607.63;3136230;28;19925;-70
2022/08/09 02:29:00;;;;;;;;;;;;;;;22.96;49.36;99610.09;3135828;28;19925;-69
2022/08/09 02:30:33;;;;;;;;;;;;;;;22.89;49.61;99609.81;3135944;28;19921;-70
2022/08/09 02:32:06;;;;;;;;;;;;;;;22.85;49.38;99609.28;3136151;28;19920;-70
2022/08/09 02:33:41;;;;;;;;;;;;;;;22.81;49.29;99610.59;3138837;28;20332;-70
2022/08/09 02:35:25;;;;;;;;;;;;;;;22.78;49.41;99612.72;3136004;28;20284;-71
2022/08/09 02:36:58;;;;;;;;;;;;;;;22.76;49.36;99620.00;3129602;28;19932;-70
2022/08/09 02:38:31;;;;;;;;;;;;;;;22.67;49.74;99619.09;3135836;28;19978;-70
2022/08/09 02:40:05;;;;;;;;;;;;;;;22.61;50.01;99606.41;3136022;28;19982;-69
2022/08/09 02:41:39;;;;;;;;;;;;;;;22.59;49.79;99614.50;3136255;28;19920;-71
2022/08/09 02:43:12;;;;;;;;;;;;;;;22.56;49.48;99614.00;3136064;28;19929;-70
2022/08/09 02:44:47;;;;;;;;;;;;;;;22.55;49.27;99612.31;3136060;28;19921;-70
2022/08/09 02:46:19;;;;;;;;;;;;;;;22.54;49.37;99615.94;3134883;28;19925;-70
2022/08/09 02:47:52;;;;;;;;;;;;;;;22.52;49.12;99615.28;3136224;28;19924;-70
2022/08/09 02:49:24;;;;;;;;;;;;;;;22.50;48.92;99612.78;3135839;28;20011;-70
2022/08/09 02:50:56;;;;;;;;;;;;;;;22.49;48.69;99613.75;3136074;28;19943;-70
2022/08/09 02:52:31;;;;;;;;;;;;;;;22.49;48.64;99617.25;3135793;28;19928;-70
2022/08/09 02:54:04;;;;;;;;;;;;;;;22.49;48.39;99616.41;3135839;28;19921;-70
2022/08/09 02:55:36;;;;;;;;;;;;;;;22.53;48.32;99617.78;3135863;28;19982;-70
2022/08/09 02:57:09;;;;;;;;;;;;;;;22.56;48.05;99611.34;3135678;28;19920;-70
2022/08/09 02:58:41;;;;;;;;;;;;;;;22.58;47.98;99610.19;3135746;28;19925;-70
2022/08/09 03:00:15;;;;;;;;;;;;;;;22.60;47.75;99615.38;3135617;28;19932;-71
2022/08/09 03:01:48;;;;;;;;;;;;;;;22.60;47.65;99620.69;3135762;28;19925;-69
2022/08/09 03:03:21;;;;;;;;;;;;;;;22.61;47.44;99609.06;3138423;28;19932;-70
2022/08/09 03:04:53;;;;;;;;;;;;;;;22.60;47.44;99612.72;3135649;28;20012;-69
2022/08/09 03:06:25;;;;;;;;;;;;;;;22.61;47.31;99609.06;3135637;28;19932;-71
2022/08/09 03:07:56;;;;;;;;;;;;;;;22.62;47.23;99616.88;3135586;28;19924;-70
2022/08/09 03:09:28;;;;;;;;;;;;;;;22.63;47.05;99612.41;3136020;28;19920;-69
2022/08/09 03:11:01;;;;;;;;;;;;;;;22.62;47.17;99616.03;3135678;28;19982;-70
2022/08/09 03:12:33;;;;;;;;;;;;;;;22.62;46.98;99611.56;3135400;28;20292;-70
2022/08/09 03:14:05;;;;;;;;;;;;;;;22.63;46.77;99617.72;3135265;28;20283;-70
2022/08/09 03:15:39;;;;;;;;;;;;;;;22.63;46.82;99615.06;3135488;28;20375;-70
2022/08/09 03:17:10;;;;;;;;;;;;;;;22.63;46.92;99620.38;3135611;28;19970;-70
2022/08/09 03:18:42;;;;;;;;;;;;;;;22.64;46.86;99617.56;3139047;28;19924;-70
2022/08/09 03:20:14;;;;;;;;;;;;;;;22.64;46.77;99622.03;3136243;28;19994;-69
2022/08/09 03:21:49;;;;;;;;;;;;;;;22.64;46.89;99617.56;3135261;28;19921;-70
2022/08/09 03:23:20;;;;;;;;;;;;;;;22.67;46.82;99622.56;3135309;28;20367;-70
2022/08/09 03:24:51;;;;;;;;;;;;;;;22.69;46.71;99625.91;3135257;28;19936;-69
2022/08/09 03:26:23;;;;;;;;;;;;;;;22.71;46.81;99633.72;3135682;28;19921;-70
2022/08/09 03:27:55;;;;;;;;;;;;;;;22.72;46.47;99627.44;3135306;28;19921;-69
2022/08/09 03:29:27;;;;;;;;;;;;;;;22.76;46.66;99622.66;3135200;28;19933;-69
2022/08/09 03:31:01;;;;;;;;;;;;;;;22.76;46.60;99628.78;3135282;28;19925;-69
2022/08/09 03:32:34;;;;;;;;;;;;;;;22.74;46.71;99622.78;3135405;28;19924;-69
2022/08/09 03:34:06;;;;;;;;;;;;;;;22.67;47.11;99616.44;3135563;28;20364;-69
2022/08/09 03:35:38;;;;;;;;;;;;;;;22.65;47.04;99618.38;3135430;28;19932;-69
2022/08/09 03:37:10;;;;;;;;;;;;;;;22.62;47.09;99616.88;3135146;28;19925;-69
2022/08/09 03:38:43;;;;;;;;;;;;;;;22.60;47.08;99620.69;3135460;28;19935;-69
2022/08/09 03:40:15;;;;;;;;;;;;;;;22.56;47.31;99620.13;3135171;28;20360;-70
2022/08/09 03:41:47;;;;;;;;;;;;;;;22.49;47.42;99617.25;3135393;28;20027;-69
2022/08/09 03:43:18;;;;;;;;;;;;;;;22.43;47.58;99615.19;3135923;28;19939;-69
2022/08/09 03:44:50;;;;;;;;;;;;;;;22.40;47.86;99612.84;3136221;28;19948;-68
2022/08/09 03:46:22;;;;;;;;;;;;;;;22.35;47.73;99614.28;3132374;28;19925;-69
2022/08/09 03:47:54;;;;;;;;;;;;;;;22.32;47.85;99612.75;3132699;28;20291;-68
2022/08/09 03:49:27;;;;;;;;;;;;;;;22.30;47.82;99617.34;3134281;28;19927;-68
2022/08/09 03:50:58;;;;;;;;;;;;;;;22.27;47.99;99612.34;3134124;28;19921;-69
2022/08/09 03:52:30;;;;;;;;;;;;;;;22.25;47.98;99617.81;3134477;28;19931;-68
2022/08/09 03:54:02;;;;;;;;;;;;;;;22.24;48.02;99615.31;3132351;28;19951;-70
2022/08/09 03:55:34;;;;;;;;;;;;;;;22.22;47.79;99615.47;3135190;28;19921;-69
2022/08/09 03:57:07;;;;;;;;;;;;;;;22.24;47.39;99613.50;3134756;28;19920;-69
2022/08/09 03:58:38;;;;;;;;;;;;;;;22.28;47.59;99619.34;3135189;28;19939;-70
2022/08/09 04:00:11;;;;;;;;;;;;;;;22.30;47.25;99617.34;3135310;28;19929;-69
2022/08/09 04:01:44;;;;;;;;;;;;;;;22.32;47.22;99612.75;3135146;28;19998;-70
2022/08/09 04:03:16;;;;;;;;;;;;;;;22.37;46.96;99618.44;3135049;28;19921;-70
2022/08/09 04:04:47;;;;;;;;;;;;;;;22.37;47.25;99623.75;3135293;28;19924;-69
2022/08/09 04:06:19;;;;;;;;;;;;;;;22.38;47.03;99613.97;3134975;28;19920;-69
2022/08/09 04:07:50;;;;;;;;;;;;;;;22.38;47.12;99620.09;3135008;28;20249;-70
2022/08/09 04:09:21;;;;;;;;;;;;;;;22.39;46.87;99611.19;3134926;28;19925;-70
2022/08/09 04:10:53;;;;;;;;;;;;;;;22.41;47.04;99609.19;3134767;28;19950;-71
2022/08/09 04:12:37;;;;;;;;;;;;;;;22.44;46.83;99610.72;3135170;28;19936;-70
2022/08/09 04:14:10;;;;;;;;;;;;;;;22.46;46.75;99614.06;3134990;28;19924;-69
2022/08/09 04:15:43;;;;;;;;;;;;;;;22.46;46.83;99620.19;3135063;28;20028;-71
2022/08/09 04:17:15;;;;;;;;;;;;;;;22.47;46.84;99613.91;3135002;28;19995;-70
2022/08/09 04:18:47;;;;;;;;;;;;;;;22.49;46.69;99614.59;3134914;28;20323;-71
2022/08/09 04:20:18;;;;;;;;;;;;;;;22.51;46.69;99605.63;3138704;28;19920;-74
2022/08/09 04:21:50;;;;;;;;;;;;;;;22.49;46.62;99601.31;3135180;28;19995;-70
2022/08/09 04:23:22;;;;;;;;;;;;;;;22.51;46.46;99598.53;3134992;28;19989;-70
2022/08/09 04:24:53;;;;;;;;;;;;;;;22.53;46.63;99601.03;3135183;28;19921;-69
2022/08/09 04:26:25;;;;;;;;;;;;;;;22.52;46.34;99599.38;3134890;28;20041;-69
2022/08/09 04:27:57;;;;;;;;;;;;;;;22.54;46.54;99597.38;3134878;28;19920;-69
2022/08/09 04:29:28;;;;;;;;;;;;;;;22.56;46.50;99598.06;3134694;28;19936;-69
2022/08/09 04:30:59;;;;;;;;;;;;;;;22.58;46.54;99596.09;3134926;28;19920;-68
2022/08/09 04:32:32;;;;;;;;;;;;;;;22.60;46.29;99591.50;3135038;28;19943;-69
2022/08/09 04:34:04;;;;;;;;;;;;;;;22.61;46.31;99588.66;3136384;28;19932;-69
2022/08/09 04:35:35;;;;;;;;;;;;;;;22.64;46.52;99592.84;3135396;28;19952;-71
2022/08/09 04:37:07;;;;;;;;;;;;;;;22.63;46.45;99585.88;3135158;28;19929;-69
2022/08/09 04:38:39;;;;;;;;;;;;;;;22.62;46.38;99587.66;3135085;28;19935;-71
2022/08/09 04:40:11;;;;;;;;;;;;;;;22.62;46.42;99586.84;3134881;28;19931;-71
2022/08/09 04:41:42;;;;;;;;;;;;;;;22.61;46.38;99593.97;3134851;28;19920;-70
2022/08/09 04:43:14;;;;;;;;;;;;;;;22.63;46.31;99588.53;3135012;28;20012;-70
2022/08/09 04:44:46;;;;;;;;;;;;;;;22.65;46.38;99592.69;3134921;28;19931;-69
2022/08/09 04:46:17;;;;;;;;;;;;;;;22.65;45.97;99586.53;3134856;28;19935;-70
2022/08/09 04:47:50;;;;;;;;;;;;;;;22.68;45.81;99594.19;3134992;28;19921;-70
2022/08/09 04:49:22;;;;;;;;;;;;;;;22.71;45.95;99594.72;3136359;28;19924;-70
2022/08/09 04:50:54;;;;;;;;;;;;;;;22.72;46.04;99598.22;3137627;28;19921;-70
2022/08/09 04:52:26;;;;;;;;;;;;;;;22.72;45.80;99606.19;3134859;28;19940;-70
2022/08/09 04:53:57;;;;;;;;;;;;;;;22.76;45.76;99610.19;3134742;28;19993;-69
2022/08/09 04:55:29;;;;;;;;;;;;;;;22.77;45.71;99609.19;3134999;28;20407;-70
2022/08/09 04:57:00;;;;;;;;;;;;;;;22.80;45.91;99608.91;3127878;28;19920;-70
2022/08/09 04:58:33;;;;;;;;;;;;;;;22.80;45.86;99608.91;3134624;28;19924;-70
2022/08/09 05:00:05;;;;;;;;;;;;;;;22.82;45.81;99611.41;3135039;28;19920;-71
2022/08/09 05:01:35;;;;;;;;;;;;;;;22.84;45.83;99612.94;3134812;28;19982;-69
2022/08/09 05:03:09;;;;;;;;;;;;;;;22.87;46.06;99614.47;3134823;28;19924;-69
2022/08/09 05:04:41;;;;;;;;;;;;;;;22.87;46.11;99612.63;3135521;28;19920;-70
2022/08/09 05:06:13;;;;;;;;;;;;;;;22.88;46.06;99602.84;3135117;28;19925;-69
2022/08/09 05:07:45;;;;;;;;;;;;;;;22.89;46.12;99612.47;3134438;28;19921;-69
2022/08/09 05:09:16;;;;;;;;;;;;;;;22.91;46.51;99611.31;3135815;28;19924;-69
2022/08/09 05:10:47;;;;;;;;;;;;;;;22.93;46.60;99604.06;3137124;28;20004;-68
2022/08/09 05:12:18;;;;;;;;;;;;;;;22.99;46.34;99610.59;3137171;28;19928;-70
2022/08/09 05:13:50;;;;;;;;;;;;;;;23.03;46.33;99608.47;3136856;28;19932;-70
2022/08/09 05:15:23;;;;;;;;;;;;;;;23.10;46.33;99609.50;3136986;28;19936;-69
2022/08/09 05:16:58;;;;;;;;;;;;;;;23.16;46.28;99608.91;3136908;28;19983;-69
2022/08/09 05:18:32;;;;;;;;;;;;;;;23.23;46.10;99607.28;3136991;28;19932;-69
2022/08/09 05:20:04;;;;;;;;;;;;;;;23.29;46.16;99608.50;3137013;28;19971;-69
2022/08/09 05:21:36;;;;;;;;;;;;;;;23.35;46.00;99602.56;3130381;28;19988;-69
2022/08/09 05:23:08;;;;;;;;;;;;;;;23.43;45.94;99607.09;3137008;28;19920;-69
2022/08/09 05:24:40;;;;;;;;;;;;;;;23.49;45.77;99612.63;3136664;28;19927;-70
2022/08/09 05:26:11;;;;;;;;;;;;;;;23.57;45.44;99610.03;3136474;28;19921;-69
2022/08/09 05:27:43;;;;;;;;;;;;;;;23.64;45.52;99609.38;3136601;28;19921;-68
2022/08/09 05:29:18;;;;;;;;;;;;;;;23.73;45.52;99611.13;3136693;28;19930;-69
2022/08/09 05:30:49;;;;;;;;;;;;;;;23.81;45.35;99608.47;3136506;28;19921;-69
2022/08/09 05:32:22;;;;;;;;;;;;;;;23.89;45.06;99607.69;3136625;28;19921;-69
2022/08/09 05:33:55;;;;;;;;;;;;;;;23.95;45.27;99605.22;3130364;28;19986;-69
2022/08/09 05:35:27;;;;;;;;;;;;;;;24.04;45.22;99603.44;3136978;28;20705;-70
2022/08/09 05:36:58;;;;;;;;;;;;;;;24.13;44.87;99607.78;3136729;28;19932;-69
2022/08/09 05:38:31;;;;;;;;;;;;;;;24.23;44.72;99616.47;3136647;28;19947;-69
2022/08/09 05:40:03;;;;;;;;;;;;;;;24.34;44.55;99610.00;3136642;28;19925;-69
2022/08/09 05:41:33;;;;;;;;;;;;;;;24.43;44.39;99609.09;3136414;28;19921;-69
2022/08/09 05:43:06;;;;;;;;;;;;;;;24.52;44.55;99607.25;3136564;28;20419;-69
2022/08/09 05:44:37;;;;;;;;;;;;;;;24.58;44.10;99616.41;3136338;28;19931;-70
2022/08/09 05:46:10;;;;;;;;;;;;;;;24.65;44.25;99612.09;3136372;28;19986;-69
2022/08/09 05:47:42;;;;;;;;;;;;;;;24.72;44.00;99611.28;3136414;28;20011;-69
2022/08/09 05:49:15;;;;;;;;;;;;;;;24.80;43.37;99614.94;3139939;28;20011;-69
2022/08/09 05:50:47;;;;;;;;;;;;;;;24.87;43.63;99607.94;3138735;28;19932;-69
2022/08/09 05:52:19;;;;;;;;;;;;;;;24.93;43.24;99609.94;3136541;28;19998;-69
2022/08/09 05:53:51;;;;;;;;;;;;;;;25.00;43.18;99605.63;3136429;28;19921;-70
2022/08/09 05:55:23;;;;;;;;;;;;;;;25.08;43.10;99610.97;3133409;28;19929;-69
2022/08/09 05:56:54;;;;;;;;;;;;;;;25.17;42.97;99607.31;3136026;28;19987;-69
2022/08/09 05:58:26;;;;;;;;;;;;;;;25.26;42.85;99613.47;3131265;28;19928;-69
2022/08/09 05:59:58;;;;;;;;;;;;;;;25.35;42.62;99612.47;3136424;28;19924;-71
2022/08/09 06:01:30;;;;;;;;;;;;;;;25.45;42.32;99604.28;3136244;28;19932;-67
2022/08/09 06:03:02;;;;;;;;;;;;;;;25.56;42.18;99608.44;3136018;28;19932;-67
2022/08/09 06:04:35;;;;;;;;;;;;;;;25.68;41.89;99612.41;3137332;28;19925;-68
2022/08/09 06:06:07;;;;;;;;;;;;;;;25.81;41.79;99612.66;3140271;28;20011;-66
2022/08/09 06:07:39;;;;;;;;;;;;;;;26.64;40.13;99605.94;3136035;28;19920;-68
2022/08/09 06:09:10;;;;;;;;;;;;;;;28.20;37.46;99607.94;3136354;28;19932;-67
2022/08/09 06:10:42;;;;;;;;;;;;;;;29.35;35.29;99600.81;3136262;28;19924;-68
2022/08/09 06:12:13;;;;;;;;;;;;;;;30.02;34.36;99604.72;3136336;28;19925;-69
2022/08/09 06:13:45;;;;;;;;;;;;;;;29.51;34.76;99607.72;3136144;28;19932;-69
2022/08/09 06:15:17;;;;;;;;;;;;;;;28.86;35.69;99612.34;3136269;28;19924;-69
2022/08/09 06:16:49;;;;;;;;;;;;;;;28.53;36.49;99602.16;3136315;28;19920;-69
2022/08/09 06:18:21;;;;;;;;;;;;;;;28.34;36.83;99600.91;3136241;28;19921;-68
2022/08/09 06:19:54;;;;;;;;;;;;;;;28.19;37.10;99608.97;3139424;28;19929;-67
2022/08/09 06:21:26;;;;;;;;;;;;;;;28.04;37.47;99609.00;3136320;28;20288;-67
2022/08/09 06:22:58;;;;;;;;;;;;;;;27.95;37.64;99606.59;3136082;28;19924;-69
2022/08/09 06:24:29;;;;;;;;;;;;;;;27.87;37.42;99600.34;3136024;28;19920;-69
2022/08/09 06:26:01;;;;;;;;;;;;;;;27.83;37.78;99603.53;3135993;28;19924;-69
2022/08/09 06:27:33;;;;;;;;;;;;;;;27.81;37.57;99606.44;3135934;28;19920;-68
2022/08/09 06:29:04;;;;;;;;;;;;;;;27.81;37.20;99602.94;3135966;28;19986;-67
2022/08/09 06:30:36;;;;;;;;;;;;;;;27.78;37.51;99604.13;3135105;28;20344;-67
2022/08/09 06:32:08;;;;;;;;;;;;;;;27.80;37.22;99601.25;3135812;28;19931;-67
2022/08/09 06:33:39;;;;;;;;;;;;;;;27.80;36.98;99599.41;3129196;28;19932;-67
2022/08/09 06:35:13;;;;;;;;;;;;;;;27.84;36.78;99597.19;3141990;28;20045;-68
2022/08/09 06:36:44;;;;;;;;;;;;;;;27.86;36.17;99601.34;3128323;28;19936;-67
2022/08/09 06:38:15;;;;;;;;;;;;;;;27.86;35.96;99595.16;3125235;28;19928;-68
2022/08/09 06:39:47;;;;;;;;;;;;;;;27.88;35.70;99598.47;3132215;28;19982;-69
2022/08/09 06:41:19;;;;;;;;;;;;;;;27.94;36.03;99589.69;3135692;28;19921;-68
2022/08/09 06:42:51;;;;;;;;;;;;;;;28.00;35.52;99593.47;3134791;28;19929;-68
2022/08/09 06:44:23;;;;;;;;;;;;;;;28.06;35.80;99595.41;3132731;28;20304;-67
2022/08/09 06:45:54;;;;;;;;;;;;;;;28.13;35.34;99591.81;3134248;28;19997;-67
2022/08/09 06:47:26;;;;;;;;;;;;;;;28.18;35.33;99590.41;3133697;28;20016;-66
2022/08/09 06:48:58;;;;;;;;;;;;;;;28.24;34.74;99592.31;3132499;28;20276;-68
2022/08/09 06:50:31;;;;;;;;;;;;;;;28.27;34.67;99589.25;3130341;28;19979;-68
2022/08/09 06:52:04;;;;;;;;;;;;;;;28.34;34.93;99592.84;3135050;28;19986;-69
2022/08/09 06:53:35;;;;;;;;;;;;;;;28.39;34.98;99592.28;3135464;28;19928;-67
2022/08/09 06:55:07;;;;;;;;;;;;;;;28.43;34.45;99588.25;3135427;28;19982;-67
2022/08/09 06:56:40;;;;;;;;;;;;;;;28.51;34.73;99593.47;3135295;28;19920;-67
2022/08/09 06:58:11;;;;;;;;;;;;;;;28.57;33.90;99598.06;3135580;28;19927;-69
2022/08/09 06:59:43;;;;;;;;;;;;;;;28.63;34.11;99591.94;3135206;28;19921;-67
2022/08/09 07:01:14;;;;;;;;;;;;;;;28.71;34.21;99589.13;3135277;28;19935;-67
2022/08/09 07:02:46;;;;;;;;;;;;;;;28.80;34.00;99585.28;3136882;28;19951;-68
2022/08/09 07:04:18;;;;;;;;;;;;;;;28.89;33.99;99577.94;3139962;28;19920;-68
2022/08/09 07:05:51;;;;;;;;;;;;;;;28.99;33.98;99588.34;3135318;28;19920;-69
2022/08/09 07:07:22;;;;;;;;;;;;;;;29.07;33.95;99582.88;3135704;28;19936;-68
2022/08/09 07:08:54;;;;;;;;;;;;;;;29.12;33.38;99588.47;3131819;28;19920;-69
2022/08/09 07:10:26;;;;;;;;;;;;;;;29.20;33.42;99585.66;3135275;28;19990;-69
2022/08/09 07:11:58;;;;;;;;;;;;;;;29.30;33.13;99585.31;3135396;28;19929;-68
2022/08/09 07:13:29;;;;;;;;;;;;;;;29.37;32.73;99588.88;3135569;28;19920;-68
2022/08/09 07:15:02;;;;;;;;;;;;;;;29.46;32.93;99589.53;3135321;28;19921;-68
2022/08/09 07:16:34;;;;;;;;;;;;;;;29.50;32.45;99577.38;3135388;28;20368;-67
2022/08/09 07:18:05;;;;;;;;;;;;;;;29.63;32.61;99582.03;3135282;28;19994;-69
2022/08/09 07:19:37;;;;;;;;;;;;;;;29.72;33.04;99582.69;3136729;28;20332;-68
2022/08/09 07:21:10;;;;;;;;;;;;;;;29.80;32.03;99587.91;3135286;28;19947;-68
2022/08/09 07:22:42;;;;;;;;;;;;;;;29.89;32.23;99586.69;3135263;28;19921;-68
2022/08/09 07:24:13;;;;;;;;;;;;;;;30.00;32.03;99583.44;3135314;28;19924;-67
2022/08/09 07:25:46;;;;;;;;;;;;;;;30.08;31.76;99593.16;3135289;28;20331;-67
2022/08/09 07:27:19;;;;;;;;;;;;;;;30.19;32.01;99583.72;3134908;28;19931;-67
2022/08/09 07:28:50;;;;;;;;;;;;;;;30.30;31.92;99588.53;3134466;28;20344;-68
2022/08/09 07:30:22;;;;;;;;;;;;;;;30.40;31.31;99585.44;3135375;28;19949;-68
2022/08/09 07:31:54;;;;;;;;;;;;;;;30.47;31.27;99589.00;3134756;28;19932;-68
2022/08/09 07:33:26;;;;;;;;;;;;;;;30.54;30.78;99596.03;3137573;28;20363;-69
2022/08/09 07:34:58;;;;;;;;;;;;;;;30.64;30.88;99595.63;3135113;28;20019;-68
2022/08/09 07:36:31;;;;;;;;;;;;;;;30.71;30.37;99595.66;3135453;28;19920;-69
2022/08/09 07:38:02;;;;;;;;;;;;;;;30.72;30.28;99589.22;3134973;28;20398;-69
2022/08/09 07:39:34;;;;;;;;;;;;;;;30.75;30.43;99594.19;3134849;28;19920;-70
2022/08/09 07:41:06;;;;;;;;;;;;;;;30.80;30.41;99597.94;3135108;28;20351;-69
2022/08/09 07:42:47;;;;;;;;;;;;;;;30.87;30.35;99595.25;3135603;28;19935;-69
2022/08/09 07:44:19;;;;;;;;;;;;;;;30.98;30.18;99596.50;3134624;28;20283;-68
2022/08/09 07:45:50;;;;;;;;;;;;;;;31.07;29.92;99599.81;3134789;28;19929;-70
2022/08/09 07:47:22;;;;;;;;;;;;;;;31.13;30.18;99589.06;3135838;28;19924;-68
2022/08/09 07:48:54;;;;;;;;;;;;;;;31.20;29.85;99592.56;3135181;28;19982;-71
2022/08/09 07:50:26;;;;;;;;;;;;;;;31.25;29.78;99591.94;3135137;28;19924;-69
2022/08/09 07:51:59;;;;;;;;;;;;;;;31.29;29.51;99590.47;3135109;28;19921;-68
2022/08/09 07:53:32;;;;;;;;;;;;;;;31.33;29.30;99594.41;3134896;28;19932;-68
2022/08/09 07:55:04;;;;;;;;;;;;;;;31.38;29.35;99589.25;3135182;28;19979;-69
2022/08/09 07:56:36;;;;;;;;;;;;;;;31.47;28.99;99588.00;3135080;28;19920;-70
2022/08/09 07:58:08;;;;;;;;;;;;;;;31.56;28.33;99587.75;3133461;28;19921;-69
2022/08/09 07:59:40;;;;;;;;;;;;;;;31.60;27.58;99592.53;3135207;28;19928;-69
2022/08/09 08:01:11;;;;;;;;;;;;;;;31.67;28.35;99584.44;3134284;28;19921;-68